createdAt,value
2018-04-13T00:02:39.005Z,62.4
2018-04-13T00:07:38.995Z,62.4
2018-04-13T00:12:39.174Z,62.7
2018-04-13T00:17:38.998Z,63.6
2018-04-13T00:22:39.152Z,64.5
2018-04-13T00:27:39.370Z,64.5
2018-04-13T00:32:51.064Z,64.7
2018-04-13T00:37:50.759Z,64.5
2018-04-13T00:42:50.921Z,64.3
2018-04-13T00:47:50.970Z,64
2018-04-13T00:52:51.016Z,64.1
2018-04-13T00:57:57.373Z,64
2018-04-13T01:02:57.381Z,64.8
2018-04-13T01:07:57.743Z,64.7
2018-04-13T01:12:57.700Z,65.3
2018-04-13T01:18:10.119Z,65
2018-04-13T01:23:09.832Z,64.5
2018-04-13T01:28:10.098Z,64.4
2018-04-13T01:33:09.853Z,65.3
2018-04-13T01:38:10.060Z,65.3
2018-04-13T01:43:10.065Z,65
2018-04-13T01:48:09.863Z,65.2
2018-04-13T01:53:09.855Z,65.4
2018-04-13T01:58:09.857Z,65.2
2018-04-13T02:03:21.655Z,64.7
2018-04-13T02:08:21.603Z,65.1
2018-04-13T02:13:21.392Z,65.9
2018-04-13T02:18:21.361Z,65.7
2018-04-13T02:23:21.521Z,65.7
2018-04-13T02:28:21.376Z,65.8
2018-04-13T02:33:21.394Z,65.7
2018-04-13T02:38:21.608Z,67
2018-04-13T02:43:21.773Z,66.9
2018-04-13T02:48:34.159Z,66.3
2018-04-13T02:53:34.102Z,65.6
2018-04-13T02:58:34.054Z,66.7
2018-04-13T03:03:34.060Z,67.4
2018-04-13T03:08:33.910Z,67
2018-04-13T03:13:33.897Z,67.6
2018-04-13T03:18:34.072Z,66.7
2018-04-13T03:23:34.145Z,68.3
2018-04-13T03:28:34.348Z,68.9
2018-04-13T03:33:45.959Z,69.7
2018-04-13T03:38:45.679Z,69.5
2018-04-13T03:43:45.956Z,69.7
2018-04-13T03:48:45.839Z,70.2
2018-04-13T03:53:45.896Z,71.5
2018-04-13T03:58:46.181Z,68.4
2018-04-13T04:03:46.036Z,69.3
2018-04-13T04:08:45.909Z,68.8
2018-04-13T04:13:46.099Z,67.4
2018-04-13T04:19:15.231Z,70.2
2018-04-13T04:24:15.231Z,68.1
2018-04-13T04:29:15.243Z,69.3
2018-04-13T04:34:15.290Z,69.3
2018-04-13T04:39:25.859Z,69.3
2018-04-13T04:44:25.777Z,69.6
2018-04-13T04:49:25.645Z,68.6
2018-04-13T04:54:25.916Z,69.8
2018-04-13T04:59:25.525Z,70.6
2018-04-13T05:04:25.600Z,70.4
2018-04-13T05:09:25.911Z,69.9
2018-04-13T05:14:31.205Z,70.5
2018-04-13T05:19:31.135Z,71.3
2018-04-13T05:24:43.946Z,71.3
2018-04-13T05:29:43.693Z,71.1
2018-04-13T05:34:43.919Z,71.5
2018-04-13T05:39:43.844Z,70.3
2018-04-13T05:44:43.890Z,69.9
2018-04-13T05:49:43.915Z,68.3
2018-04-13T05:54:43.663Z,68.9
2018-04-13T05:59:44.097Z,68.2
2018-04-13T06:04:44.007Z,66.1
2018-04-13T06:09:55.653Z,64.5
2018-04-13T06:14:55.552Z,64.3
2018-04-13T06:19:55.628Z,62.9
2018-04-13T06:24:55.639Z,63.5
2018-04-13T06:29:55.533Z,60
2018-04-13T06:34:55.573Z,58.4
2018-04-13T06:39:55.602Z,58.3
2018-04-13T06:44:56.267Z,57.7
2018-04-13T06:49:56.222Z,55.4
2018-04-13T06:55:08.142Z,51.2
2018-04-13T07:00:08.054Z,50.5
2018-04-13T07:05:08.084Z,48.7
2018-04-13T07:10:07.858Z,48.7
2018-04-13T07:15:08.024Z,45.6
2018-04-13T07:20:08.166Z,45
2018-04-13T07:25:07.897Z,44.8
2018-04-13T07:30:08.062Z,42.3
2018-04-13T07:35:09.065Z,40.3
2018-04-13T07:40:10.723Z,39
2018-04-13T07:45:07.893Z,38.9
2018-04-13T07:50:08.061Z,37.6
2018-04-13T07:55:14.241Z,40.3
2018-04-13T08:00:13.967Z,38.5
2018-04-13T08:05:25.807Z,37.7
2018-04-13T08:10:25.743Z,35.6
2018-04-13T08:15:25.629Z,36.8
2018-04-13T08:20:25.545Z,35.3
2018-04-13T08:25:25.746Z,35.1
2018-04-13T08:30:25.629Z,33.8
2018-04-13T08:35:25.542Z,33.4
2018-04-13T08:40:29.981Z,33.5
2018-04-13T08:45:29.742Z,31.8
2018-04-13T08:50:42.029Z,30.3
2018-04-13T08:55:41.986Z,33.6
2018-04-13T09:00:41.811Z,34.3
2018-04-13T09:05:41.903Z,32.7
2018-04-13T09:10:41.670Z,30.9
2018-04-13T09:15:41.811Z,32.8
2018-04-13T09:20:41.915Z,30.2
2018-04-13T09:25:41.666Z,31.4
2018-04-13T09:30:41.659Z,32.9
2018-04-13T09:35:53.856Z,29.3
2018-04-13T09:40:53.531Z,28.7
2018-04-13T09:45:53.602Z,31.2
2018-04-13T09:50:53.632Z,30.1
2018-04-13T09:55:53.604Z,32
2018-04-13T10:00:53.440Z,32.9
2018-04-13T10:05:53.652Z,36.2
2018-04-13T10:10:53.474Z,38.8
2018-04-13T10:15:53.709Z,42
2018-04-13T10:21:06.014Z,46.8
2018-04-13T10:26:05.936Z,51.9
2018-04-13T10:31:06.009Z,50
2018-04-13T10:36:05.747Z,50.4
2018-04-13T10:41:05.758Z,52.7
2018-04-13T10:46:05.728Z,53.5
2018-04-13T10:51:05.928Z,51.7
2018-04-13T10:56:05.769Z,51.8
2018-04-13T11:01:05.786Z,49.7
2018-04-13T11:06:20.150Z,47.9
2018-04-13T11:11:20.014Z,49.6
2018-04-13T11:16:20.028Z,47.2
2018-04-13T11:21:19.954Z,49.4
2018-04-13T11:26:19.973Z,47.9
2018-04-13T11:31:20.028Z,48
2018-04-13T11:36:19.806Z,45.5
2018-04-13T11:41:19.816Z,44.6
2018-04-13T11:46:19.918Z,44.8
2018-04-13T11:51:32.344Z,41.5
2018-04-13T11:56:32.129Z,39.6
2018-04-13T12:01:32.301Z,38.4
2018-04-13T12:06:32.226Z,38.3
2018-04-13T12:11:32.094Z,35.1
2018-04-13T12:16:32.305Z,37.1
2018-04-13T12:21:32.252Z,37.1
2018-04-13T12:26:32.097Z,38.4
2018-04-13T12:31:32.289Z,38.8
2018-04-13T12:36:45.030Z,37.3
2018-04-13T12:41:44.984Z,37.8
2018-04-13T12:46:44.889Z,36.4
2018-04-13T12:51:44.856Z,34.6
2018-04-13T12:56:45.002Z,35.5
2018-04-13T13:01:44.784Z,35.5
2018-04-13T13:06:44.923Z,33.4
2018-04-13T13:11:44.861Z,35.2
2018-04-13T13:16:45.012Z,34.2
2018-04-13T13:21:57.306Z,34.1
2018-04-13T13:26:57.068Z,32.6
2018-04-13T13:31:57.061Z,33.7
2018-04-13T13:36:57.007Z,32.4
2018-04-13T13:41:57.202Z,33.2
2018-04-13T13:46:57.050Z,33.1
2018-04-13T13:51:57.258Z,34.1
2018-04-13T13:56:59.493Z,33.9
2018-04-13T14:01:59.461Z,34.5
2018-04-13T14:07:11.742Z,34.8
2018-04-13T14:12:11.692Z,34.4
2018-04-13T14:17:11.627Z,36
2018-04-13T14:22:11.657Z,35.5
2018-04-13T14:27:11.504Z,34.1
2018-04-13T14:32:11.505Z,35
2018-04-13T14:37:11.524Z,38.4
2018-04-13T14:42:12.495Z,37.9
2018-04-13T14:47:12.191Z,38.5
2018-04-13T14:52:24.687Z,39.5
2018-04-13T14:57:24.412Z,39.4
2018-04-13T15:02:24.238Z,39.5
2018-04-13T15:07:24.451Z,39.2
2018-04-13T15:12:24.704Z,40
2018-04-13T15:17:25.528Z,39.6
2018-04-13T15:22:25.508Z,38.1
2018-04-13T15:27:25.507Z,38.1
2018-04-13T15:32:25.457Z,38.1
2018-04-13T15:37:25.289Z,38.8
2018-04-13T15:42:25.518Z,37.8
2018-04-13T15:47:25.223Z,38.8
2018-04-13T15:52:25.602Z,37.7
2018-04-13T15:57:25.358Z,37.4
2018-04-13T16:02:38.055Z,38.2
2018-04-13T16:07:37.981Z,38.4
2018-04-13T16:12:37.767Z,39.1
2018-04-13T16:17:37.927Z,40.4
2018-04-13T16:22:37.780Z,43
2018-04-13T16:27:37.774Z,43.4
2018-04-13T16:32:37.802Z,44.7
2018-04-13T16:37:38.762Z,45.7
2018-04-13T16:42:38.498Z,44.5
2018-04-13T16:47:50.775Z,44.3
2018-04-13T16:52:50.536Z,45
2018-04-13T16:57:50.487Z,42.7
2018-04-13T17:02:50.736Z,43.8
2018-04-13T17:07:50.466Z,45.1
2018-04-13T17:12:50.543Z,46.7
2018-04-13T17:17:50.767Z,47.3
2018-04-13T17:22:50.519Z,47.2
2018-04-13T17:27:50.588Z,45.9
2018-04-13T17:32:50.793Z,44.6
2018-04-13T17:37:50.559Z,46
2018-04-13T17:42:50.691Z,47.3
2018-04-13T17:47:51.480Z,48.3
2018-04-13T17:52:51.371Z,49
2018-04-13T17:58:04.027Z,49.2
2018-04-13T18:03:03.697Z,50.4
2018-04-13T18:08:03.876Z,51.4
2018-04-13T18:13:04.015Z,52.9
2018-04-13T18:18:03.816Z,54
2018-04-13T18:23:03.977Z,53.6
2018-04-13T18:28:03.834Z,51.8
2018-04-13T18:33:04.109Z,51.2
2018-04-13T18:38:03.847Z,51.8
2018-04-13T18:43:16.584Z,51
2018-04-13T18:48:16.468Z,52.3
2018-04-13T18:53:16.474Z,52
2018-04-13T18:58:16.448Z,52.2
2018-04-13T19:03:17.310Z,52.2
2018-04-13T19:08:16.801Z,54.2
2018-04-13T19:13:16.508Z,53.7
2018-04-13T19:18:16.514Z,53.5
2018-04-13T19:23:16.729Z,54.4
2018-04-13T19:28:16.505Z,55
2018-04-13T19:33:16.493Z,55.4
2018-04-13T19:38:16.541Z,55.6
2018-04-13T19:43:19.227Z,56.5
2018-04-13T19:48:18.921Z,56.5
2018-04-13T19:53:31.239Z,56.5
2018-04-13T19:58:30.927Z,56.5
2018-04-13T20:03:30.977Z,57.2
2018-04-13T20:08:30.990Z,57.2
2018-04-13T20:13:30.962Z,57
2018-04-13T20:18:30.991Z,56.7
2018-04-13T20:23:30.980Z,57.7
2018-04-13T20:28:30.981Z,57.2
2018-04-13T20:33:30.957Z,58.7
2018-04-13T20:38:42.803Z,58.4
2018-04-13T20:43:43.778Z,59.5
2018-04-13T20:48:42.586Z,60.8
2018-04-13T20:53:42.575Z,61.5
2018-04-13T20:58:42.579Z,61.2
2018-04-13T21:03:42.566Z,62.1
2018-04-13T21:08:42.565Z,62.2
2018-04-13T21:13:47.399Z,62.4
2018-04-13T21:18:47.160Z,62.1
2018-04-13T21:23:59.113Z,63.1
2018-04-13T21:28:58.813Z,63.2
2018-04-13T21:33:58.816Z,64
2018-04-13T21:38:58.813Z,64.4
2018-04-13T21:43:58.847Z,63.9
2018-04-13T21:48:58.836Z,65.1
2018-04-13T21:53:58.823Z,64.7
2018-04-13T21:58:58.845Z,65.1
2018-04-13T22:03:58.861Z,64.6
2018-04-13T22:09:09.959Z,65.7
2018-04-13T22:14:09.681Z,68.8
2018-04-13T22:19:09.694Z,69.5
2018-04-13T22:24:09.701Z,69.4
2018-04-13T22:29:09.778Z,71.2
2018-04-13T22:34:09.683Z,69.9
2018-04-13T22:39:09.703Z,69.6
2018-04-13T22:44:10.527Z,69.1
2018-04-13T22:49:10.248Z,69.5
2018-04-13T22:54:22.538Z,70.4
2018-04-13T22:59:22.209Z,70.8
2018-04-13T23:04:22.270Z,69.2
2018-04-13T23:09:22.206Z,70.4
2018-04-13T23:14:22.329Z,73.2
2018-04-13T23:19:22.302Z,72.8
2018-04-13T23:24:22.303Z,73.2
2018-04-13T23:29:27.497Z,73.2
2018-04-13T23:34:27.206Z,71.3
2018-04-13T23:39:39.545Z,72.2
2018-04-13T23:44:39.268Z,72.5
2018-04-13T23:49:39.217Z,74.2
2018-04-13T23:54:39.359Z,73.3
2018-04-13T23:59:39.392Z,72.6
